sensor_id;sensor_type;location;lat;lon;timestamp;pressure;altitude;pressure_sealevel;temperature;humidity
29121;BME280;16191;49.548;8.658;2023-03-13T00:01:34;99801.81;;;10.49;100.00
29121;BME280;16191;49.548;8.658;2023-03-13T00:04:00;99801.59;;;10.54;100.00
29121;BME280;16191;49.548;8.658;2023-03-13T00:06:31;99787.72;;;10.53;100.00
29121;BME280;16191;49.548;8.658;2023-03-13T00:08:59;99791.47;;;10.48;100.00
29121;BME280;16191;49.548;8.658;2023-03-13T00:11:26;99789.75;;;10.47;100.00
29121;BME280;16191;49.548;8.658;2023-03-13T00:13:54;99778.97;;;10.54;100.00
29121;BME280;16191;49.548;8.658;2023-03-13T00:16:22;99790.59;;;10.47;100.00
29121;BME280;16191;49.548;8.658;2023-03-13T00:18:50;99772.91;;;10.54;100.00
29121;BME280;16191;49.548;8.658;2023-03-13T00:21:20;99770.44;;;10.51;100.00
29121;BME280;16191;49.548;8.658;2023-03-13T00:23:47;99778.41;;;10.48;100.00
29121;BME280;16191;49.548;8.658;2023-03-13T00:26:17;99772.13;;;10.52;100.00
29121;BME280;16191;49.548;8.658;2023-03-13T00:28:45;99766.84;;;10.53;100.00
29121;BME280;16191;49.548;8.658;2023-03-13T00:31:14;99759.16;;;10.50;100.00
29121;BME280;16191;49.548;8.658;2023-03-13T00:33:46;99747.59;;;10.56;100.00
29121;BME280;16191;49.548;8.658;2023-03-13T00:36:22;99751.13;;;10.55;100.00
29121;BME280;16191;49.548;8.658;2023-03-13T00:38:51;99742.59;;;10.51;100.00
29121;BME280;16191;49.548;8.658;2023-03-13T00:41:25;99735.31;;;10.58;100.00
29121;BME280;16191;49.548;8.658;2023-03-13T00:43:52;99731.25;;;10.52;100.00
29121;BME280;16191;49.548;8.658;2023-03-13T00:46:21;99731.81;;;10.59;100.00
29121;BME280;16191;49.548;8.658;2023-03-13T00:48:49;99724.97;;;10.56;100.00
29121;BME280;16191;49.548;8.658;2023-03-13T00:51:17;99715.38;;;10.57;100.00
29121;BME280;16191;49.548;8.658;2023-03-13T00:53:44;99721.59;;;10.54;100.00
29121;BME280;16191;49.548;8.658;2023-03-13T00:56:14;99717.06;;;10.58;100.00
29121;BME280;16191;49.548;8.658;2023-03-13T00:58:42;99704.88;;;10.58;100.00
29121;BME280;16191;49.548;8.658;2023-03-13T01:01:16;99711.84;;;10.58;100.00
29121;BME280;16191;49.548;8.658;2023-03-13T01:03:45;99699.56;;;10.60;100.00
29121;BME280;16191;49.548;8.658;2023-03-13T01:06:15;99702.25;;;10.58;100.00
29121;BME280;16191;49.548;8.658;2023-03-13T01:08:41;99701.22;;;10.61;100.00
29121;BME280;16191;49.548;8.658;2023-03-13T01:11:29;99700.25;;;10.63;100.00
29121;BME280;16191;49.548;8.658;2023-03-13T01:13:58;99685.34;;;10.65;100.00
29121;BME280;16191;49.548;8.658;2023-03-13T01:16:27;99682.75;;;10.65;100.00
29121;BME280;16191;49.548;8.658;2023-03-13T01:18:56;99672.53;;;10.61;100.00
29121;BME280;16191;49.548;8.658;2023-03-13T01:21:24;99670.69;;;10.63;100.00
29121;BME280;16191;49.548;8.658;2023-03-13T01:23:52;99657.28;;;10.71;100.00
29121;BME280;16191;49.548;8.658;2023-03-13T01:26:20;99651.34;;;10.67;100.00
29121;BME280;16191;49.548;8.658;2023-03-13T01:28:47;99647.75;;;10.70;100.00
29121;BME280;16191;49.548;8.658;2023-03-13T01:31:21;99649.44;;;10.71;100.00
29121;BME280;16191;49.548;8.658;2023-03-13T01:33:51;99644.53;;;10.64;100.00
29121;BME280;16191;49.548;8.658;2023-03-13T01:36:18;99653.03;;;10.68;100.00
29121;BME280;16191;49.548;8.658;2023-03-13T01:38:50;99647.75;;;10.70;100.00
29121;BME280;16191;49.548;8.658;2023-03-13T01:41:18;99639.63;;;10.76;100.00
29121;BME280;16191;49.548;8.658;2023-03-13T01:43:45;99639.84;;;10.71;100.00
29121;BME280;16191;49.548;8.658;2023-03-13T01:49:07;99633.56;;;10.75;100.00
29121;BME280;16191;49.548;8.658;2023-03-13T01:52:04;99634.56;;;10.73;100.00
29121;BME280;16191;49.548;8.658;2023-03-13T01:54:39;99623.13;;;10.75;100.00
29121;BME280;16191;49.548;8.658;2023-03-13T01:57:16;99625.13;;;10.70;100.00
29121;BME280;16191;49.548;8.658;2023-03-13T02:00:20;99616.22;;;10.74;100.00
29121;BME280;16191;49.548;8.658;2023-03-13T02:02:50;99613.75;;;10.71;100.00
29121;BME280;16191;49.548;8.658;2023-03-13T02:05:23;99602.56;;;10.69;100.00
29121;BME280;16191;49.548;8.658;2023-03-13T02:07:55;99594.56;;;10.72;100.00
29121;BME280;16191;49.548;8.658;2023-03-13T02:10:24;99589.50;;;10.69;100.00
29121;BME280;16191;49.548;8.658;2023-03-13T02:12:55;99591.50;;;10.64;100.00
29121;BME280;16191;49.548;8.658;2023-03-13T02:15:23;99588.13;;;10.62;100.00
29121;BME280;16191;49.548;8.658;2023-03-13T02:17:51;99574.56;;;10.55;100.00
29121;BME280;16191;49.548;8.658;2023-03-13T02:20:19;99571.56;;;10.46;100.00
29121;BME280;16191;49.548;8.658;2023-03-13T02:28:02;99558.31;;;10.33;100.00
29121;BME280;16191;49.548;8.658;2023-03-13T02:30:33;99549.81;;;10.29;100.00
29121;BME280;16191;49.548;8.658;2023-03-13T02:33:02;99549.59;;;10.34;100.00
29121;BME280;16191;49.548;8.658;2023-03-13T02:35:49;99539.38;;;10.29;100.00
29121;BME280;16191;49.548;8.658;2023-03-13T02:38:43;99529.72;;;10.32;100.00
29121;BME280;16191;49.548;8.658;2023-03-13T02:41:33;99531.19;;;10.37;100.00
29121;BME280;16191;49.548;8.658;2023-03-13T02:44:20;99525.19;;;10.35;100.00
29121;BME280;16191;49.548;8.658;2023-03-13T02:47:07;99523.50;;;10.34;100.00
29121;BME280;16191;49.548;8.658;2023-03-13T02:49:55;99537.41;;;10.35;100.00
29121;BME280;16191;49.548;8.658;2023-03-13T02:52:24;99536.47;;;10.36;100.00
29121;BME280;16191;49.548;8.658;2023-03-13T02:54:56;99523.28;;;10.39;100.00
29121;BME280;16191;49.548;8.658;2023-03-13T02:57:25;99512.16;;;10.35;100.00
29121;BME280;16191;49.548;8.658;2023-03-13T02:59:51;99518.44;;;10.31;100.00
29121;BME280;16191;49.548;8.658;2023-03-13T03:02:18;99511.38;;;10.33;100.00
29121;BME280;16191;49.548;8.658;2023-03-13T03:04:45;99498.34;;;10.33;100.00
29121;BME280;16191;49.548;8.658;2023-03-13T03:07:12;99494.97;;;10.31;100.00
29121;BME280;16191;49.548;8.658;2023-03-13T03:09:38;99497.50;;;10.33;100.00
29121;BME280;16191;49.548;8.658;2023-03-13T03:12:09;99489.00;;;10.29;100.00
29121;BME280;16191;49.548;8.658;2023-03-13T03:14:36;99488.91;;;10.30;100.00
29121;BME280;16191;49.548;8.658;2023-03-13T03:17:04;99483.56;;;10.34;100.00
29121;BME280;16191;49.548;8.658;2023-03-13T03:19:30;99491.59;;;10.29;100.00
29121;BME280;16191;49.548;8.658;2023-03-13T03:21:58;99488.00;;;10.32;100.00
29121;BME280;16191;49.548;8.658;2023-03-13T03:24:25;99468.66;;;10.36;100.00
29121;BME280;16191;49.548;8.658;2023-03-13T03:26:52;99473.13;;;10.34;100.00
29121;BME280;16191;49.548;8.658;2023-03-13T03:29:24;99473.72;;;10.39;100.00
29121;BME280;16191;49.548;8.658;2023-03-13T03:31:53;99468.81;;;10.33;100.00
29121;BME280;16191;49.548;8.658;2023-03-13T03:34:20;99471.44;;;10.33;100.00
29121;BME280;16191;49.548;8.658;2023-03-13T03:36:47;99477.41;;;10.35;100.00
29121;BME280;16191;49.548;8.658;2023-03-13T03:39:13;99485.31;;;10.33;100.00
29121;BME280;16191;49.548;8.658;2023-03-13T03:41:41;99483.63;;;10.32;100.00
29121;BME280;16191;49.548;8.658;2023-03-13T03:44:09;99481.03;;;10.32;100.00
29121;BME280;16191;49.548;8.658;2023-03-13T03:46:48;99487.91;;;10.33;100.00
29121;BME280;16191;49.548;8.658;2023-03-13T03:49:15;99481.94;;;10.31;100.00
29121;BME280;16191;49.548;8.658;2023-03-13T03:51:42;99486.38;;;10.29;100.00
29121;BME280;16191;49.548;8.658;2023-03-13T03:54:09;99481.03;;;10.32;100.00
29121;BME280;16191;49.548;8.658;2023-03-13T03:56:36;99495.59;;;10.36;100.00
29121;BME280;16191;49.548;8.658;2023-03-13T03:59:03;99493.75;;;10.38;100.00
29121;BME280;16191;49.548;8.658;2023-03-13T04:01:45;99495.31;;;10.41;100.00
29121;BME280;16191;49.548;8.658;2023-03-13T04:04:15;99496.84;;;10.45;100.00
29121;BME280;16191;49.548;8.658;2023-03-13T04:06:45;99500.66;;;10.39;100.00
29121;BME280;16191;49.548;8.658;2023-03-13T04:09:12;99489.13;;;10.43;100.00
29121;BME280;16191;49.548;8.658;2023-03-13T04:11:39;99500.66;;;10.39;100.00
29121;BME280;16191;49.548;8.658;2023-03-13T04:14:07;99486.66;;;10.40;100.00
29121;BME280;16191;49.548;8.658;2023-03-13T04:16:34;99487.69;;;10.38;100.00
29121;BME280;16191;49.548;8.658;2023-03-13T04:19:01;99484.06;;;10.40;100.00
29121;BME280;16191;49.548;8.658;2023-03-13T04:21:28;99486.91;;;10.36;100.00
29121;BME280;16191;49.548;8.658;2023-03-13T04:24:05;99489.59;;;10.34;100.00
29121;BME280;16191;49.548;8.658;2023-03-13T04:26:33;99482.22;;;10.42;100.00
29121;BME280;16191;49.548;8.658;2023-03-13T04:29:00;99484.06;;;10.40;100.00
29121;BME280;16191;49.548;8.658;2023-03-13T04:31:45;99490.03;;;10.42;100.00
29121;BME280;16191;49.548;8.658;2023-03-13T04:34:41;99471.13;;;10.39;100.00
29121;BME280;16191;49.548;8.658;2023-03-13T04:37:18;99491.13;;;10.38;100.00
29121;BME280;16191;49.548;8.658;2023-03-13T04:40:04;99475.31;;;10.41;100.00
29121;BME280;16191;49.548;8.658;2023-03-13T04:42:50;99472.88;;;10.38;100.00
29121;BME280;16191;49.548;8.658;2023-03-13T04:45:38;99468.41;;;10.40;100.00
29121;BME280;16191;49.548;8.658;2023-03-13T04:48:26;99460.69;;;10.39;100.00
29121;BME280;16191;49.548;8.658;2023-03-13T04:51:03;99461.53;;;10.39;100.00
29121;BME280;16191;49.548;8.658;2023-03-13T04:53:50;99464.88;;;10.41;100.00
29121;BME280;16191;49.548;8.658;2023-03-13T04:56:26;99487.34;;;10.44;100.00
29121;BME280;16191;49.548;8.658;2023-03-13T04:59:26;99473.47;;;10.43;100.00
29121;BME280;16191;49.548;8.658;2023-03-13T05:02:12;99473.63;;;10.40;100.00
29121;BME280;16191;49.548;8.658;2023-03-13T05:04:57;99462.09;;;10.44;100.00
29121;BME280;16191;49.548;8.658;2023-03-13T05:07:31;99465.63;;;10.43;100.00
29121;BME280;16191;49.548;8.658;2023-03-13T05:10:20;99469.25;;;10.41;100.00
29121;BME280;16191;49.548;8.658;2023-03-13T05:13:07;99456.97;;;10.43;100.00
29121;BME280;16191;49.548;8.658;2023-03-13T05:15:54;99456.06;;;10.44;100.00
29121;BME280;16191;49.548;8.658;2023-03-13T05:18:44;99451.69;;;10.44;100.00
29121;BME280;16191;49.548;8.658;2023-03-13T05:21:19;99447.53;;;10.40;100.00
29121;BME280;16191;49.548;8.658;2023-03-13T05:24:03;99468.41;;;10.40;100.00
29121;BME280;16191;49.548;8.658;2023-03-13T05:26:50;99450.75;;;10.45;100.00
29121;BME280;16191;49.548;8.658;2023-03-13T05:29:17;99450.69;;;10.47;100.00
29121;BME280;16191;49.548;8.658;2023-03-13T05:32:13;99445.47;;;10.47;100.00
29121;BME280;16191;49.548;8.658;2023-03-13T05:34:53;99439.31;;;10.48;100.00
29121;BME280;16191;49.548;8.658;2023-03-13T05:37:38;99413.91;;;10.51;100.00
29121;BME280;16191;49.548;8.658;2023-03-13T05:40:33;99417.53;;;10.49;100.00
29121;BME280;16191;49.548;8.658;2023-03-13T05:43:06;99419.06;;;10.53;100.00
29121;BME280;16191;49.548;8.658;2023-03-13T05:45:46;99424.78;;;10.59;100.00
29121;BME280;16191;49.548;8.658;2023-03-13T05:48:29;99426.56;;;10.59;100.00
29121;BME280;16191;49.548;8.658;2023-03-13T05:51:04;99424.19;;;10.54;100.00
29121;BME280;16191;49.548;8.658;2023-03-13T05:53:47;99424.88;;;10.58;100.00
29121;BME280;16191;49.548;8.658;2023-03-13T05:56:40;99423.75;;;10.62;100.00
29121;BME280;16191;49.548;8.658;2023-03-13T05:59:22;99417.63;;;10.63;100.00
29121;BME280;16191;49.548;8.658;2023-03-13T06:01:56;99418.38;;;10.65;100.00
29121;BME280;16191;49.548;8.658;2023-03-13T06:04:28;99433.88;;;10.68;100.00
29121;BME280;16191;49.548;8.658;2023-03-13T06:06:55;99411.16;;;10.70;100.00
29121;BME280;16191;49.548;8.658;2023-03-13T06:09:22;99401.47;;;10.72;100.00
29121;BME280;16191;49.548;8.658;2023-03-13T06:11:50;99405.78;;;10.73;100.00
29121;BME280;16191;49.548;8.658;2023-03-13T06:14:18;99412.50;;;10.77;100.00
29121;BME280;16191;49.548;8.658;2023-03-13T06:17:03;99402.75;;;10.81;100.00
29121;BME280;16191;49.548;8.658;2023-03-13T06:19:30;99396.00;;;10.77;100.00
29121;BME280;16191;49.548;8.658;2023-03-13T06:21:56;99405.28;;;10.82;100.00
29121;BME280;16191;49.548;8.658;2023-03-13T06:24:23;99391.94;;;10.87;100.00
29121;BME280;16191;49.548;8.658;2023-03-13T06:26:50;99399.03;;;10.85;100.00
29121;BME280;16191;49.548;8.658;2023-03-13T06:29:17;99408.22;;;10.92;100.00
29121;BME280;16191;49.548;8.658;2023-03-13T06:31:43;99406.44;;;10.92;100.00
29121;BME280;16191;49.548;8.658;2023-03-13T06:34:11;99416.78;;;10.94;100.00
29121;BME280;16191;49.548;8.658;2023-03-13T06:36:38;99415.78;;;10.96;100.00
29121;BME280;16191;49.548;8.658;2023-03-13T06:39:04;99404.09;;;11.04;100.00
29121;BME280;16191;49.548;8.658;2023-03-13T06:41:31;99409.19;;;11.05;100.00
29121;BME280;16191;49.548;8.658;2023-03-13T06:43:58;99397.09;;;11.04;100.00
29121;BME280;16191;49.548;8.658;2023-03-13T06:46:25;99382.75;;;11.11;100.00
29121;BME280;16191;49.548;8.658;2023-03-13T06:48:52;99386.78;;;11.17;100.00
29121;BME280;16191;49.548;8.658;2023-03-13T06:51:20;99381.75;;;11.14;100.00
29121;BME280;16191;49.548;8.658;2023-03-13T06:53:47;99373.47;;;11.21;100.00
29121;BME280;16191;49.548;8.658;2023-03-13T06:56:14;99369.09;;;11.22;100.00
29121;BME280;16191;49.548;8.658;2023-03-13T06:58:41;99370.56;;;11.26;100.00
29121;BME280;16191;49.548;8.658;2023-03-13T07:01:10;99371.91;;;11.33;100.00
29121;BME280;16191;49.548;8.658;2023-03-13T07:03:38;99376.38;;;11.31;100.00
29121;BME280;16191;49.548;8.658;2023-03-13T07:06:07;99368.47;;;11.32;100.00
29121;BME280;16191;49.548;8.658;2023-03-13T07:08:35;99372.50;;;11.38;100.00
29121;BME280;16191;49.548;8.658;2023-03-13T07:11:04;99365.41;;;11.40;100.00
29121;BME280;16191;49.548;8.658;2023-03-13T07:13:31;99369.13;;;11.36;100.00
29121;BME280;16191;49.548;8.658;2023-03-13T07:16:03;99375.13;;;11.38;100.00
29121;BME280;16191;49.548;8.658;2023-03-13T07:18:30;99344.25;;;11.45;100.00
29121;BME280;16191;49.548;8.658;2023-03-13T07:20:59;99346.03;;;11.44;100.00
29121;BME280;16191;49.548;8.658;2023-03-13T07:23:28;99353.56;;;11.49;100.00
29121;BME280;16191;49.548;8.658;2023-03-13T07:25:56;99370.84;;;11.51;100.00
29121;BME280;16191;49.548;8.658;2023-03-13T07:28:23;99374.03;;;11.56;100.00
29121;BME280;16191;49.548;8.658;2023-03-13T07:30:51;99373.03;;;11.59;100.00
29121;BME280;16191;49.548;8.658;2023-03-13T07:33:18;99371.16;;;11.61;100.00
29121;BME280;16191;49.548;8.658;2023-03-13T07:35:49;99377.91;;;11.65;100.00
29121;BME280;16191;49.548;8.658;2023-03-13T07:38:16;99386.84;;;11.75;100.00
29121;BME280;16191;49.548;8.658;2023-03-13T07:40:50;99385.88;;;11.78;100.00
29121;BME280;16191;49.548;8.658;2023-03-13T07:43:18;99390.16;;;11.79;100.00
29121;BME280;16191;49.548;8.658;2023-03-13T07:45:59;99398.00;;;11.79;100.00
29121;BME280;16191;49.548;8.658;2023-03-13T07:48:34;99435.00;;;11.87;100.00
29121;BME280;16191;49.548;8.658;2023-03-13T07:51:03;99387.78;;;11.90;100.00
29121;BME280;16191;49.548;8.658;2023-03-13T07:53:29;99390.47;;;11.88;100.00
29121;BME280;16191;49.548;8.658;2023-03-13T07:56:01;99391.94;;;11.92;100.00
29121;BME280;16191;49.548;8.658;2023-03-13T07:58:30;99396.72;;;12.00;100.00
29121;BME280;16191;49.548;8.658;2023-03-13T08:00:57;99384.13;;;12.07;100.00
29121;BME280;16191;49.548;8.658;2023-03-13T08:03:25;99392.25;;;12.02;100.00
29121;BME280;16191;49.548;8.658;2023-03-13T08:06:22;99389.28;;;12.08;100.00
29121;BME280;16191;49.548;8.658;2023-03-13T08:08:50;99392.72;;;12.09;100.00
29121;BME280;16191;49.548;8.658;2023-03-13T08:11:19;99401.88;;;12.16;100.00
29121;BME280;16191;49.548;8.658;2023-03-13T08:13:46;99395.16;;;12.12;100.00
29121;BME280;16191;49.548;8.658;2023-03-13T08:16:18;99388.34;;;12.09;100.00
29121;BME280;16191;49.548;8.658;2023-03-13T08:18:47;99390.47;;;12.17;100.00
29121;BME280;16191;49.548;8.658;2023-03-13T08:21:28;99382.94;;;12.12;100.00
29121;BME280;16191;49.548;8.658;2023-03-13T08:24:01;99388.50;;;12.20;100.00
29121;BME280;16191;49.548;8.658;2023-03-13T08:26:29;99372.81;;;12.20;100.00
29121;BME280;16191;49.548;8.658;2023-03-13T08:28:58;99384.88;;;12.23;100.00
29121;BME280;16191;49.548;8.658;2023-03-13T08:31:29;99382.91;;;12.26;100.00
29121;BME280;16191;49.548;8.658;2023-03-13T08:33:56;99375.25;;;12.23;100.00
29121;BME280;16191;49.548;8.658;2023-03-13T08:36:29;99379.47;;;12.26;100.00
29121;BME280;16191;49.548;8.658;2023-03-13T08:39:02;99377.50;;;12.29;100.00
29121;BME280;16191;49.548;8.658;2023-03-13T08:41:32;99379.00;;;12.33;100.00
29121;BME280;16191;49.548;8.658;2023-03-13T08:44:01;99393.53;;;12.38;100.00
29121;BME280;16191;49.548;8.658;2023-03-13T08:46:30;99383.94;;;12.38;100.00
29121;BME280;16191;49.548;8.658;2023-03-13T08:48:57;99380.94;;;12.44;100.00
29121;BME280;16191;49.548;8.658;2023-03-13T08:51:25;99383.00;;;12.39;100.00
29121;BME280;16191;49.548;8.658;2023-03-13T08:53:53;99379.44;;;12.40;100.00
29121;BME280;16191;49.548;8.658;2023-03-13T08:56:23;99375.03;;;12.41;100.00
29121;BME280;16191;49.548;8.658;2023-03-13T08:58:52;99371.97;;;12.48;100.00
29121;BME280;16191;49.548;8.658;2023-03-13T09:01:20;99373.84;;;12.46;100.00
29121;BME280;16191;49.548;8.658;2023-03-13T09:03:47;99384.56;;;12.42;100.00
29121;BME280;16191;49.548;8.658;2023-03-13T09:06:13;99388.59;;;12.47;100.00
29121;BME280;16191;49.548;8.658;2023-03-13T09:08:40;99394.66;;;12.48;100.00
29121;BME280;16191;49.548;8.658;2023-03-13T09:11:13;99393.47;;;12.53;100.00
29121;BME280;16191;49.548;8.658;2023-03-13T09:13:42;99384.47;;;12.57;100.00
29121;BME280;16191;49.548;8.658;2023-03-13T09:16:15;99374.25;;;12.67;100.00
29121;BME280;16191;49.548;8.658;2023-03-13T09:18:42;99364.78;;;12.79;100.00
29121;BME280;16191;49.548;8.658;2023-03-13T09:21:13;99377.88;;;12.79;100.00
29121;BME280;16191;49.548;8.658;2023-03-13T09:23:40;99380.00;;;12.86;100.00
29121;BME280;16191;49.548;8.658;2023-03-13T09:26:07;99389.19;;;12.79;100.00
29121;BME280;16191;49.548;8.658;2023-03-13T09:28:34;99380.72;;;12.76;100.00
29121;BME280;16191;49.548;8.658;2023-03-13T09:31:10;99389.09;;;12.81;100.00
29121;BME280;16191;49.548;8.658;2023-03-13T09:33:37;99382.25;;;12.78;100.00
29121;BME280;16191;49.548;8.658;2023-03-13T09:36:04;99376.41;;;12.75;100.00
29121;BME280;16191;49.548;8.658;2023-03-13T09:38:31;99384.16;;;12.76;100.00
29121;BME280;16191;49.548;8.658;2023-03-13T09:42:05;99378.94;;;12.76;100.00
29121;BME280;16191;49.548;8.658;2023-03-13T09:49:41;99355.69;;;12.84;100.00
29121;BME280;16191;49.548;8.658;2023-03-13T09:52:21;99349.44;;;12.87;100.00
29121;BME280;16191;49.548;8.658;2023-03-13T09:54:54;99325.78;;;13.01;100.00
29121;BME280;16191;49.548;8.658;2023-03-13T09:57:32;99323.81;;;13.04;100.00
29121;BME280;16191;49.548;8.658;2023-03-13T10:00:16;99323.63;;;13.08;100.00
29121;BME280;16191;49.548;8.658;2023-03-13T10:02:47;99312.13;;;13.10;100.00
29121;BME280;16191;49.548;8.658;2023-03-13T10:07:44;99305.00;;;13.12;100.00
29121;BME280;16191;49.548;8.658;2023-03-13T10:10:28;99286.28;;;13.18;100.00
29121;BME280;16191;49.548;8.658;2023-03-13T10:13:09;99286.19;;;13.32;100.00
29121;BME280;16191;49.548;8.658;2023-03-13T10:15:45;99302.88;;;13.69;100.00
29121;BME280;16191;49.548;8.658;2023-03-13T10:18:20;99283.91;;;13.79;100.00
29121;BME280;16191;49.548;8.658;2023-03-13T10:20:52;99290.91;;;14.03;100.00
29121;BME280;16191;49.548;8.658;2023-03-13T10:23:31;99295.09;;;14.06;100.00
29121;BME280;16191;49.548;8.658;2023-03-13T10:26:01;99283.31;;;14.12;100.00
29121;BME280;16191;49.548;8.658;2023-03-13T10:28:28;99290.97;;;14.15;100.00
29121;BME280;16191;49.548;8.658;2023-03-13T10:31:33;99287.63;;;14.13;100.00
29121;BME280;16191;49.548;8.658;2023-03-13T10:34:10;99285.44;;;14.06;100.00
29121;BME280;16191;49.548;8.658;2023-03-13T10:36:42;99283.03;;;14.03;100.00
29121;BME280;16191;49.548;8.658;2023-03-13T10:39:17;99274.59;;;14.11;100.00
29121;BME280;16191;49.548;8.658;2023-03-13T10:41:45;99271.13;;;14.23;100.00
29121;BME280;16191;49.548;8.658;2023-03-13T10:44:20;99271.03;;;14.25;100.00
29121;BME280;16191;49.548;8.658;2023-03-13T10:46:48;99267.09;;;14.30;100.00
29121;BME280;16191;49.548;8.658;2023-03-13T10:51:54;99254.00;;;14.43;100.00
29121;BME280;16191;49.548;8.658;2023-03-13T10:54:26;99258.06;;;14.47;100.00
29121;BME280;16191;49.548;8.658;2023-03-13T10:57:29;99255.72;;;14.55;100.00
29121;BME280;16191;49.548;8.658;2023-03-13T10:59:57;99241.78;;;14.90;100.00
29121;BME280;16191;49.548;8.658;2023-03-13T11:02:35;99225.38;;;15.10;100.00
29121;BME280;16191;49.548;8.658;2023-03-13T11:07:50;99220.06;;;14.99;100.00
29121;BME280;16191;49.548;8.658;2023-03-13T11:10:26;99212.19;;;14.99;100.00
29121;BME280;16191;49.548;8.658;2023-03-13T11:12:56;99214.34;;;15.05;100.00
29121;BME280;16191;49.548;8.658;2023-03-13T11:15:46;99208.41;;;15.14;100.00
29121;BME280;16191;49.548;8.658;2023-03-13T11:21:16;99184.31;;;15.31;100.00
29121;BME280;16191;49.548;8.658;2023-03-13T11:23:52;99182.03;;;15.94;100.00
29121;BME280;16191;49.548;8.658;2023-03-13T11:26:36;99163.25;;;16.41;100.00
29121;BME280;16191;49.548;8.658;2023-03-13T11:29:29;99162.09;;;16.55;100.00
29121;BME280;16191;49.548;8.658;2023-03-13T11:31:59;99154.22;;;16.55;100.00
29121;BME280;16191;49.548;8.658;2023-03-13T11:34:43;99156.53;;;17.11;100.00
29121;BME280;16191;49.548;8.658;2023-03-13T11:37:15;99148.16;;;16.75;100.00
29121;BME280;16191;49.548;8.658;2023-03-13T11:42:48;99120.59;;;16.48;100.00
29121;BME280;16191;49.548;8.658;2023-03-13T11:45:47;99112.16;;;16.44;100.00
29121;BME280;16191;49.548;8.658;2023-03-13T11:48:45;99097.84;;;16.46;100.00
29121;BME280;16191;49.548;8.658;2023-03-13T11:51:27;99114.31;;;16.39;100.00
29121;BME280;16191;49.548;8.658;2023-03-13T11:54:26;99100.47;;;16.26;100.00
29121;BME280;16191;49.548;8.658;2023-03-13T11:57:23;99091.50;;;16.28;100.00
29121;BME280;16191;49.548;8.658;2023-03-13T12:03:00;99081.88;;;16.59;100.00
29121;BME280;16191;49.548;8.658;2023-03-13T12:05:52;99071.84;;;16.64;100.00
29121;BME280;16191;49.548;8.658;2023-03-13T12:13:39;99061.97;;;17.18;100.00
29121;BME280;16191;49.548;8.658;2023-03-13T12:19:27;99039.59;;;17.52;100.00
29121;BME280;16191;49.548;8.658;2023-03-13T12:21:57;99041.06;;;17.35;100.00
29121;BME280;16191;49.548;8.658;2023-03-13T12:24:34;99019.31;;;17.43;100.00
29121;BME280;16191;49.548;8.658;2023-03-13T12:27:12;99019.31;;;17.43;100.00
29121;BME280;16191;49.548;8.658;2023-03-13T12:29:52;99016.69;;;17.53;100.00
29121;BME280;16191;49.548;8.658;2023-03-13T12:32:33;99015.44;;;17.47;100.00
29121;BME280;16191;49.548;8.658;2023-03-13T12:35:26;99018.50;;;17.52;100.00
29121;BME280;16191;49.548;8.658;2023-03-13T12:38:01;99007.50;;;17.37;100.00
29121;BME280;16191;49.548;8.658;2023-03-13T12:43:13;98985.63;;;17.66;100.00
29121;BME280;16191;49.548;8.658;2023-03-13T12:51:32;98972.72;;;17.82;100.00
29121;BME280;16191;49.548;8.658;2023-03-13T13:02:00;98943.28;;;17.87;100.00
29121;BME280;16191;49.548;8.658;2023-03-13T13:04:33;98938.16;;;17.95;100.00
29121;BME280;16191;49.548;8.658;2023-03-13T13:07:21;98931.91;;;17.96;100.00
29121;BME280;16191;49.548;8.658;2023-03-13T13:12:38;98922.41;;;18.12;100.00
29121;BME280;16191;49.548;8.658;2023-03-13T13:15:26;98928.53;;;18.13;100.00
29121;BME280;16191;49.548;8.658;2023-03-13T13:18:12;98916.28;;;18.12;100.00
29121;BME280;16191;49.548;8.658;2023-03-13T13:20:43;98915.19;;;18.14;100.00
29121;BME280;16191;49.548;8.658;2023-03-13T13:23:23;98914.06;;;18.17;100.00
29121;BME280;16191;49.548;8.658;2023-03-13T13:25:51;98891.41;;;18.14;100.00
29121;BME280;16191;49.548;8.658;2023-03-13T13:30:48;98878.25;;;18.42;100.00
29121;BME280;16191;49.548;8.658;2023-03-13T13:38:36;98866.19;;;19.12;88.61
29121;BME280;16191;49.548;8.658;2023-03-13T13:43:46;98824.38;;;19.25;82.05
29121;BME280;16191;49.548;8.658;2023-03-13T13:46:30;98832.28;;;19.43;75.91
29121;BME280;16191;49.548;8.658;2023-03-13T13:54:29;98802.59;;;20.01;73.68
29121;BME280;16191;49.548;8.658;2023-03-13T13:56:57;98789.13;;;19.86;73.17
29121;BME280;16191;49.548;8.658;2023-03-13T13:59:44;98782.78;;;20.47;69.36
29121;BME280;16191;49.548;8.658;2023-03-13T14:02:18;98784.50;;;20.56;66.34
29121;BME280;16191;49.548;8.658;2023-03-13T14:04:48;98783.13;;;20.18;69.09
29121;BME280;16191;49.548;8.658;2023-03-13T14:12:55;98755.13;;;20.07;69.35
29121;BME280;16191;49.548;8.658;2023-03-13T14:15:30;98748.19;;;20.48;66.17
29121;BME280;16191;49.548;8.658;2023-03-13T14:17:59;98729.69;;;20.23;65.37
29121;BME280;16191;49.548;8.658;2023-03-13T14:20:36;98727.88;;;20.73;64.22
29121;BME280;16191;49.548;8.658;2023-03-13T14:23:08;98734.31;;;20.79;63.52
29121;BME280;16191;49.548;8.658;2023-03-13T14:25:47;98738.25;;;20.50;63.67
29121;BME280;16191;49.548;8.658;2023-03-13T14:28:28;98733.91;;;19.99;65.44
29121;BME280;16191;49.548;8.658;2023-03-13T14:30:56;98716.91;;;20.10;66.34
29121;BME280;16191;49.548;8.658;2023-03-13T14:33:25;98707.00;;;20.20;64.93
29121;BME280;16191;49.548;8.658;2023-03-13T14:35:53;98711.53;;;19.94;66.82
29121;BME280;16191;49.548;8.658;2023-03-13T14:38:22;98708.47;;;19.72;68.27
29121;BME280;16191;49.548;8.658;2023-03-13T14:40:51;98694.56;;;19.70;68.57
29121;BME280;16191;49.548;8.658;2023-03-13T14:43:32;98687.38;;;19.55;70.80